FWKI/LLW METAR and TAF weather

Enter ICAO airport designator
Station Type Date Time Source
FWKI METAR 2021/09/27 15:00 UTC NOAA

FWKI 271500Z 07012KT 9999 FEW040 25/10 Q1018 NOSIG


Station Type Date Time Source
FWKI Decoded METAR 2021/09/27 15:00 UTC NOAA

Lilongwe International Airport, Malawi (FWKI) 13-47S 033-46E 1229M
Sep 27, 2021 - 11:00 AM EDT / 2021.09.27 1500 UTC
Wind: from the ENE (070 degrees) at 14 MPH (12 KT):0
Visibility: greater than 7 mile(s):0
Sky conditions: mostly clear
Temperature: 77 F (25 C)
Dew Point: 50 F (10 C)
Relative Humidity: 38%
Pressure (altimeter): 30.06 in. Hg (1018 hPa)
ob: FWKI 271500Z 07012KT 9999 FEW040 25/10 Q1018 NOSIG
cycle: 15

Station Type Date Time Source
FWKI TAF 2021/09/27 18:06 UTC NOAA

TAF TAF FWKI 271500Z 2718/2824 07012KT 9999 FEW040
FM271800 04006KT CAVOK
BECMG 2808/2810 03010KT 9999 FEW028

Example: see airport list